sensor_id;sensor_type;location;lat;lon;timestamp;P1;durP1;ratioP1;P2;durP2;ratioP2
57667;SDS011;43499;52.366;12.912;2023-04-15T00:00:22;22.67;;;13.10;;
57667;SDS011;43499;52.366;12.912;2023-04-15T00:01:23;20.85;;;12.18;;
57667;SDS011;43499;52.366;12.912;2023-04-15T00:02:24;20.85;;;11.40;;
57667;SDS011;43499;52.366;12.912;2023-04-15T00:03:25;19.60;;;11.55;;
57667;SDS011;43499;52.366;12.912;2023-04-15T00:04:26;21.67;;;12.70;;
57667;SDS011;43499;52.366;12.912;2023-04-15T00:05:30;20.92;;;12.52;;
57667;SDS011;43499;52.366;12.912;2023-04-15T00:06:32;21.27;;;12.68;;
57667;SDS011;43499;52.366;12.912;2023-04-15T00:07:33;24.63;;;13.20;;
57667;SDS011;43499;52.366;12.912;2023-04-15T00:08:34;17.83;;;11.20;;
57667;SDS011;43499;52.366;12.912;2023-04-15T00:09:35;21.27;;;12.80;;
57667;SDS011;43499;52.366;12.912;2023-04-15T00:10:36;19.35;;;11.23;;
57667;SDS011;43499;52.366;12.912;2023-04-15T00:11:37;20.05;;;11.27;;
57667;SDS011;43499;52.366;12.912;2023-04-15T00:12:38;19.88;;;11.00;;
57667;SDS011;43499;52.366;12.912;2023-04-15T00:13:39;18.70;;;11.77;;
57667;SDS011;43499;52.366;12.912;2023-04-15T00:14:40;20.65;;;11.77;;
57667;SDS011;43499;52.366;12.912;2023-04-15T00:15:42;17.73;;;11.30;;
57667;SDS011;43499;52.366;12.912;2023-04-15T00:16:43;18.33;;;12.07;;
57667;SDS011;43499;52.366;12.912;2023-04-15T00:17:44;20.88;;;12.43;;
57667;SDS011;43499;52.366;12.912;2023-04-15T00:18:45;20.77;;;12.45;;
57667;SDS011;43499;52.366;12.912;2023-04-15T00:19:46;20.40;;;12.27;;
57667;SDS011;43499;52.366;12.912;2023-04-15T00:20:48;19.88;;;12.25;;
57667;SDS011;43499;52.366;12.912;2023-04-15T00:21:49;21.30;;;12.90;;
57667;SDS011;43499;52.366;12.912;2023-04-15T00:22:50;20.77;;;12.27;;
57667;SDS011;43499;52.366;12.912;2023-04-15T00:23:51;18.92;;;11.20;;
57667;SDS011;43499;52.366;12.912;2023-04-15T00:24:53;20.33;;;12.15;;
57667;SDS011;43499;52.366;12.912;2023-04-15T00:25:54;20.98;;;12.63;;
57667;SDS011;43499;52.366;12.912;2023-04-15T00:26:55;20.15;;;11.98;;
57667;SDS011;43499;52.366;12.912;2023-04-15T00:27:57;19.55;;;12.35;;
57667;SDS011;43499;52.366;12.912;2023-04-15T00:28:58;21.50;;;11.88;;
57667;SDS011;43499;52.366;12.912;2023-04-15T00:29:59;20.08;;;13.07;;
57667;SDS011;43499;52.366;12.912;2023-04-15T00:31:00;22.73;;;13.07;;
57667;SDS011;43499;52.366;12.912;2023-04-15T00:32:01;23.50;;;12.48;;
57667;SDS011;43499;52.366;12.912;2023-04-15T00:33:02;22.98;;;12.93;;
57667;SDS011;43499;52.366;12.912;2023-04-15T00:34:03;20.48;;;13.20;;
57667;SDS011;43499;52.366;12.912;2023-04-15T00:35:04;21.33;;;12.50;;
57667;SDS011;43499;52.366;12.912;2023-04-15T00:36:06;27.33;;;13.25;;
57667;SDS011;43499;52.366;12.912;2023-04-15T00:37:08;22.50;;;13.77;;
57667;SDS011;43499;52.366;12.912;2023-04-15T00:38:10;21.48;;;12.80;;
57667;SDS011;43499;52.366;12.912;2023-04-15T00:39:11;21.88;;;12.80;;
57667;SDS011;43499;52.366;12.912;2023-04-15T00:40:12;21.63;;;12.40;;
57667;SDS011;43499;52.366;12.912;2023-04-15T00:41:13;22.77;;;13.32;;
57667;SDS011;43499;52.366;12.912;2023-04-15T00:42:14;27.08;;;14.18;;
57667;SDS011;43499;52.366;12.912;2023-04-15T00:43:16;21.42;;;12.75;;
57667;SDS011;43499;52.366;12.912;2023-04-15T00:44:18;20.42;;;13.30;;
57667;SDS011;43499;52.366;12.912;2023-04-15T00:45:19;23.13;;;14.13;;
57667;SDS011;43499;52.366;12.912;2023-04-15T00:46:20;23.52;;;13.93;;
57667;SDS011;43499;52.366;12.912;2023-04-15T00:47:22;22.98;;;13.07;;
57667;SDS011;43499;52.366;12.912;2023-04-15T00:48:23;21.52;;;12.88;;
57667;SDS011;43499;52.366;12.912;2023-04-15T00:49:24;22.40;;;12.85;;
57667;SDS011;43499;52.366;12.912;2023-04-15T00:50:26;23.50;;;14.05;;
57667;SDS011;43499;52.366;12.912;2023-04-15T00:51:27;24.65;;;13.32;;
57667;SDS011;43499;52.366;12.912;2023-04-15T00:52:28;22.45;;;13.60;;
57667;SDS011;43499;52.366;12.912;2023-04-15T00:53:29;25.13;;;14.13;;
57667;SDS011;43499;52.366;12.912;2023-04-15T00:54:30;22.85;;;13.95;;
57667;SDS011;43499;52.366;12.912;2023-04-15T00:55:32;24.40;;;14.75;;
57667;SDS011;43499;52.366;12.912;2023-04-15T00:56:34;24.63;;;14.50;;
57667;SDS011;43499;52.366;12.912;2023-04-15T00:57:37;22.17;;;13.18;;
57667;SDS011;43499;52.366;12.912;2023-04-15T00:58:39;21.15;;;13.02;;
57667;SDS011;43499;52.366;12.912;2023-04-15T00:59:41;23.30;;;14.27;;
57667;SDS011;43499;52.366;12.912;2023-04-15T01:00:42;24.08;;;13.75;;
57667;SDS011;43499;52.366;12.912;2023-04-15T01:01:44;24.67;;;14.13;;
57667;SDS011;43499;52.366;12.912;2023-04-15T01:02:47;26.52;;;14.02;;
57667;SDS011;43499;52.366;12.912;2023-04-15T01:03:48;25.13;;;14.02;;
57667;SDS011;43499;52.366;12.912;2023-04-15T01:04:50;25.95;;;14.32;;
57667;SDS011;43499;52.366;12.912;2023-04-15T01:05:52;30.00;;;14.93;;
57667;SDS011;43499;52.366;12.912;2023-04-15T01:06:58;27.58;;;15.45;;
57667;SDS011;43499;52.366;12.912;2023-04-15T01:07:59;24.48;;;14.75;;
57667;SDS011;43499;52.366;12.912;2023-04-15T01:09:00;27.27;;;14.68;;
57667;SDS011;43499;52.366;12.912;2023-04-15T01:10:02;28.65;;;15.82;;
57667;SDS011;43499;52.366;12.912;2023-04-15T01:11:04;22.38;;;13.70;;
57667;SDS011;43499;52.366;12.912;2023-04-15T01:12:05;26.77;;;15.50;;
57667;SDS011;43499;52.366;12.912;2023-04-15T01:13:08;26.48;;;16.00;;
57667;SDS011;43499;52.366;12.912;2023-04-15T01:14:09;27.23;;;15.07;;
57667;SDS011;43499;52.366;12.912;2023-04-15T01:15:10;28.70;;;15.95;;
57667;SDS011;43499;52.366;12.912;2023-04-15T01:16:12;27.70;;;15.32;;
57667;SDS011;43499;52.366;12.912;2023-04-15T01:17:13;27.85;;;15.18;;
57667;SDS011;43499;52.366;12.912;2023-04-15T01:18:14;31.25;;;16.08;;
57667;SDS011;43499;52.366;12.912;2023-04-15T01:19:15;25.38;;;14.55;;
57667;SDS011;43499;52.366;12.912;2023-04-15T01:20:17;28.50;;;15.25;;
57667;SDS011;43499;52.366;12.912;2023-04-15T01:21:19;28.50;;;17.02;;
57667;SDS011;43499;52.366;12.912;2023-04-15T01:22:20;26.88;;;15.80;;
57667;SDS011;43499;52.366;12.912;2023-04-15T01:23:22;32.10;;;16.80;;
57667;SDS011;43499;52.366;12.912;2023-04-15T01:24:23;30.95;;;15.88;;
57667;SDS011;43499;52.366;12.912;2023-04-15T01:25:31;35.40;;;17.35;;
57667;SDS011;43499;52.366;12.912;2023-04-15T01:26:33;37.25;;;17.15;;
57667;SDS011;43499;52.366;12.912;2023-04-15T01:27:35;29.00;;;16.10;;
57667;SDS011;43499;52.366;12.912;2023-04-15T01:28:39;30.00;;;17.33;;
57667;SDS011;43499;52.366;12.912;2023-04-15T01:29:40;27.70;;;16.83;;
57667;SDS011;43499;52.366;12.912;2023-04-15T01:30:42;31.80;;;16.75;;
57667;SDS011;43499;52.366;12.912;2023-04-15T01:31:50;27.98;;;16.42;;
57667;SDS011;43499;52.366;12.912;2023-04-15T01:33:11;30.38;;;16.38;;
57667;SDS011;43499;52.366;12.912;2023-04-15T01:34:31;31.85;;;16.10;;
57667;SDS011;43499;52.366;12.912;2023-04-15T01:35:51;30.40;;;16.27;;
57667;SDS011;43499;52.366;12.912;2023-04-15T01:36:52;29.58;;;16.27;;
57667;SDS011;43499;52.366;12.912;2023-04-15T01:37:55;33.15;;;18.20;;
57667;SDS011;43499;52.366;12.912;2023-04-15T01:39:04;35.15;;;18.13;;
57667;SDS011;43499;52.366;12.912;2023-04-15T01:40:06;36.25;;;17.50;;
57667;SDS011;43499;52.366;12.912;2023-04-15T01:41:08;28.88;;;16.05;;
57667;SDS011;43499;52.366;12.912;2023-04-15T01:42:11;29.67;;;17.33;;
57667;SDS011;43499;52.366;12.912;2023-04-15T01:43:13;31.75;;;17.23;;
57667;SDS011;43499;52.366;12.912;2023-04-15T01:44:18;33.38;;;19.42;;
57667;SDS011;43499;52.366;12.912;2023-04-15T01:45:20;34.30;;;18.55;;
57667;SDS011;43499;52.366;12.912;2023-04-15T01:46:22;33.95;;;19.25;;
57667;SDS011;43499;52.366;12.912;2023-04-15T01:47:25;34.47;;;18.90;;
57667;SDS011;43499;52.366;12.912;2023-04-15T01:48:27;31.98;;;18.10;;
57667;SDS011;43499;52.366;12.912;2023-04-15T01:49:30;35.15;;;18.55;;
57667;SDS011;43499;52.366;12.912;2023-04-15T01:50:32;35.22;;;19.85;;
57667;SDS011;43499;52.366;12.912;2023-04-15T01:51:37;34.47;;;18.50;;
57667;SDS011;43499;52.366;12.912;2023-04-15T01:52:41;32.55;;;18.85;;
57667;SDS011;43499;52.366;12.912;2023-04-15T01:53:44;36.45;;;19.67;;
57667;SDS011;43499;52.366;12.912;2023-04-15T01:54:46;31.85;;;18.50;;
57667;SDS011;43499;52.366;12.912;2023-04-15T01:55:49;36.13;;;19.40;;
57667;SDS011;43499;52.366;12.912;2023-04-15T01:56:52;34.38;;;18.98;;
57667;SDS011;43499;52.366;12.912;2023-04-15T01:57:54;36.35;;;19.70;;
57667;SDS011;43499;52.366;12.912;2023-04-15T01:58:57;36.65;;;19.45;;
57667;SDS011;43499;52.366;12.912;2023-04-15T01:59:59;32.85;;;18.58;;
57667;SDS011;43499;52.366;12.912;2023-04-15T02:01:02;31.02;;;18.40;;
57667;SDS011;43499;52.366;12.912;2023-04-15T02:02:07;37.40;;;18.85;;
57667;SDS011;43499;52.366;12.912;2023-04-15T02:03:09;37.88;;;19.35;;
57667;SDS011;43499;52.366;12.912;2023-04-15T02:04:11;37.35;;;19.65;;
57667;SDS011;43499;52.366;12.912;2023-04-15T02:05:19;32.58;;;19.60;;
57667;SDS011;43499;52.366;12.912;2023-04-15T02:06:22;35.97;;;19.33;;
57667;SDS011;43499;52.366;12.912;2023-04-15T02:07:25;37.15;;;20.13;;
57667;SDS011;43499;52.366;12.912;2023-04-15T02:08:27;39.25;;;20.17;;
57667;SDS011;43499;52.366;12.912;2023-04-15T02:09:30;40.13;;;20.85;;
57667;SDS011;43499;52.366;12.912;2023-04-15T02:10:32;37.65;;;20.17;;
57667;SDS011;43499;52.366;12.912;2023-04-15T02:11:35;38.00;;;20.40;;
57667;SDS011;43499;52.366;12.912;2023-04-15T02:12:39;38.92;;;21.08;;
57667;SDS011;43499;52.366;12.912;2023-04-15T02:13:41;37.78;;;21.27;;
57667;SDS011;43499;52.366;12.912;2023-04-15T02:14:44;40.08;;;21.45;;
57667;SDS011;43499;52.366;12.912;2023-04-15T02:15:47;37.97;;;20.23;;
57667;SDS011;43499;52.366;12.912;2023-04-15T02:16:50;41.72;;;20.60;;
57667;SDS011;43499;52.366;12.912;2023-04-15T02:17:52;39.60;;;21.02;;
57667;SDS011;43499;52.366;12.912;2023-04-15T02:18:56;36.03;;;20.17;;
57667;SDS011;43499;52.366;12.912;2023-04-15T02:19:58;40.60;;;21.10;;
57667;SDS011;43499;52.366;12.912;2023-04-15T02:21:01;38.05;;;19.52;;
57667;SDS011;43499;52.366;12.912;2023-04-15T02:22:03;40.88;;;21.40;;
57667;SDS011;43499;52.366;12.912;2023-04-15T02:23:05;37.40;;;21.08;;
57667;SDS011;43499;52.366;12.912;2023-04-15T02:24:08;39.30;;;21.52;;
57667;SDS011;43499;52.366;12.912;2023-04-15T02:25:11;38.58;;;21.00;;
57667;SDS011;43499;52.366;12.912;2023-04-15T02:26:13;39.05;;;20.85;;
57667;SDS011;43499;52.366;12.912;2023-04-15T02:27:16;40.53;;;20.98;;
57667;SDS011;43499;52.366;12.912;2023-04-15T02:28:19;40.10;;;21.80;;
57667;SDS011;43499;52.366;12.912;2023-04-15T02:29:21;38.47;;;22.10;;
57667;SDS011;43499;52.366;12.912;2023-04-15T02:30:24;37.72;;;22.05;;
57667;SDS011;43499;52.366;12.912;2023-04-15T02:31:26;40.28;;;21.92;;
57667;SDS011;43499;52.366;12.912;2023-04-15T02:32:29;42.65;;;23.08;;
57667;SDS011;43499;52.366;12.912;2023-04-15T02:33:31;40.20;;;21.30;;
57667;SDS011;43499;52.366;12.912;2023-04-15T02:34:36;38.42;;;21.50;;
57667;SDS011;43499;52.366;12.912;2023-04-15T02:35:42;39.72;;;21.83;;
57667;SDS011;43499;52.366;12.912;2023-04-15T02:36:46;37.30;;;20.60;;
57667;SDS011;43499;52.366;12.912;2023-04-15T02:37:51;43.85;;;21.88;;
57667;SDS011;43499;52.366;12.912;2023-04-15T02:38:53;48.35;;;22.17;;
57667;SDS011;43499;52.366;12.912;2023-04-15T02:39:55;44.30;;;22.63;;
57667;SDS011;43499;52.366;12.912;2023-04-15T02:40:58;39.38;;;21.77;;
57667;SDS011;43499;52.366;12.912;2023-04-15T02:42:00;43.20;;;22.52;;
57667;SDS011;43499;52.366;12.912;2023-04-15T02:43:03;43.65;;;21.95;;
57667;SDS011;43499;52.366;12.912;2023-04-15T02:44:08;45.65;;;22.60;;
57667;SDS011;43499;52.366;12.912;2023-04-15T02:45:10;42.15;;;23.23;;
57667;SDS011;43499;52.366;12.912;2023-04-15T02:46:14;38.28;;;21.58;;
57667;SDS011;43499;52.366;12.912;2023-04-15T02:47:17;41.85;;;22.42;;
57667;SDS011;43499;52.366;12.912;2023-04-15T02:48:19;43.13;;;22.60;;
57667;SDS011;43499;52.366;12.912;2023-04-15T02:49:21;42.50;;;24.08;;
57667;SDS011;43499;52.366;12.912;2023-04-15T02:50:25;42.03;;;23.30;;
57667;SDS011;43499;52.366;12.912;2023-04-15T02:51:29;43.03;;;22.02;;
57667;SDS011;43499;52.366;12.912;2023-04-15T02:52:33;50.15;;;24.38;;
57667;SDS011;43499;52.366;12.912;2023-04-15T02:53:35;42.67;;;22.23;;
57667;SDS011;43499;52.366;12.912;2023-04-15T02:54:37;42.00;;;22.52;;
57667;SDS011;43499;52.366;12.912;2023-04-15T02:55:39;41.95;;;21.63;;
57667;SDS011;43499;52.366;12.912;2023-04-15T02:56:42;45.28;;;22.52;;
57667;SDS011;43499;52.366;12.912;2023-04-15T02:57:45;46.60;;;23.00;;
57667;SDS011;43499;52.366;12.912;2023-04-15T02:58:47;40.22;;;22.13;;
57667;SDS011;43499;52.366;12.912;2023-04-15T02:59:51;46.17;;;24.02;;
57667;SDS011;43499;52.366;12.912;2023-04-15T03:00:53;44.67;;;23.35;;
57667;SDS011;43499;52.366;12.912;2023-04-15T03:01:56;46.25;;;23.20;;
57667;SDS011;43499;52.366;12.912;2023-04-15T03:03:02;49.53;;;23.27;;
57667;SDS011;43499;52.366;12.912;2023-04-15T03:04:05;45.70;;;22.23;;
57667;SDS011;43499;52.366;12.912;2023-04-15T03:05:12;46.38;;;23.27;;
57667;SDS011;43499;52.366;12.912;2023-04-15T03:06:23;42.13;;;22.77;;
57667;SDS011;43499;52.366;12.912;2023-04-15T03:07:26;45.13;;;23.33;;
57667;SDS011;43499;52.366;12.912;2023-04-15T03:08:29;42.75;;;22.25;;
57667;SDS011;43499;52.366;12.912;2023-04-15T03:09:32;44.28;;;23.75;;
57667;SDS011;43499;52.366;12.912;2023-04-15T03:10:36;50.38;;;24.85;;
57667;SDS011;43499;52.366;12.912;2023-04-15T03:11:38;48.10;;;23.15;;
57667;SDS011;43499;52.366;12.912;2023-04-15T03:12:44;45.75;;;24.80;;
57667;SDS011;43499;52.366;12.912;2023-04-15T03:13:51;42.63;;;22.67;;
57667;SDS011;43499;52.366;12.912;2023-04-15T03:15:03;45.53;;;24.48;;
57667;SDS011;43499;52.366;12.912;2023-04-15T03:16:12;44.75;;;22.70;;
57667;SDS011;43499;52.366;12.912;2023-04-15T03:17:14;42.67;;;23.38;;
57667;SDS011;43499;52.366;12.912;2023-04-15T03:18:18;40.75;;;21.83;;
57667;SDS011;43499;52.366;12.912;2023-04-15T03:19:21;45.75;;;23.77;;
57667;SDS011;43499;52.366;12.912;2023-04-15T03:20:23;46.88;;;24.15;;
57667;SDS011;43499;52.366;12.912;2023-04-15T03:21:25;46.55;;;24.80;;
57667;SDS011;43499;52.366;12.912;2023-04-15T03:22:29;42.35;;;23.30;;
57667;SDS011;43499;52.366;12.912;2023-04-15T03:23:32;47.08;;;23.90;;
57667;SDS011;43499;52.366;12.912;2023-04-15T03:24:34;45.63;;;24.23;;
57667;SDS011;43499;52.366;12.912;2023-04-15T03:25:36;47.83;;;24.52;;
57667;SDS011;43499;52.366;12.912;2023-04-15T03:26:40;47.92;;;24.08;;
57667;SDS011;43499;52.366;12.912;2023-04-15T03:27:49;47.30;;;24.02;;
57667;SDS011;43499;52.366;12.912;2023-04-15T03:28:52;48.65;;;24.23;;
57667;SDS011;43499;52.366;12.912;2023-04-15T03:29:55;42.28;;;23.73;;
57667;SDS011;43499;52.366;12.912;2023-04-15T03:31:00;46.17;;;23.13;;
57667;SDS011;43499;52.366;12.912;2023-04-15T03:32:02;42.85;;;23.38;;
57667;SDS011;43499;52.366;12.912;2023-04-15T03:33:08;41.92;;;22.60;;
57667;SDS011;43499;52.366;12.912;2023-04-15T03:34:11;45.28;;;23.73;;
57667;SDS011;43499;52.366;12.912;2023-04-15T03:35:13;44.90;;;23.70;;
57667;SDS011;43499;52.366;12.912;2023-04-15T03:36:16;40.22;;;22.65;;
57667;SDS011;43499;52.366;12.912;2023-04-15T03:37:18;44.42;;;23.42;;
57667;SDS011;43499;52.366;12.912;2023-04-15T03:38:21;46.15;;;22.17;;
57667;SDS011;43499;52.366;12.912;2023-04-15T03:39:23;46.10;;;23.88;;
57667;SDS011;43499;52.366;12.912;2023-04-15T03:40:25;47.35;;;24.10;;
57667;SDS011;43499;52.366;12.912;2023-04-15T03:41:28;43.63;;;23.98;;
57667;SDS011;43499;52.366;12.912;2023-04-15T03:42:30;47.10;;;24.52;;
57667;SDS011;43499;52.366;12.912;2023-04-15T03:43:32;40.85;;;23.10;;
57667;SDS011;43499;52.366;12.912;2023-04-15T03:44:34;43.42;;;23.27;;
57667;SDS011;43499;52.366;12.912;2023-04-15T03:45:37;42.70;;;23.13;;
57667;SDS011;43499;52.366;12.912;2023-04-15T03:46:39;45.58;;;23.80;;
57667;SDS011;43499;52.366;12.912;2023-04-15T03:47:42;47.88;;;22.70;;
57667;SDS011;43499;52.366;12.912;2023-04-15T03:48:44;43.08;;;24.85;;
57667;SDS011;43499;52.366;12.912;2023-04-15T03:49:46;42.53;;;23.70;;
57667;SDS011;43499;52.366;12.912;2023-04-15T03:50:49;41.13;;;23.92;;
57667;SDS011;43499;52.366;12.912;2023-04-15T03:51:51;51.97;;;25.10;;
57667;SDS011;43499;52.366;12.912;2023-04-15T03:52:53;47.50;;;24.40;;
57667;SDS011;43499;52.366;12.912;2023-04-15T03:53:56;44.55;;;23.17;;
57667;SDS011;43499;52.366;12.912;2023-04-15T03:54:59;47.80;;;24.90;;
57667;SDS011;43499;52.366;12.912;2023-04-15T03:56:02;48.28;;;25.70;;
57667;SDS011;43499;52.366;12.912;2023-04-15T03:57:04;46.63;;;24.98;;
57667;SDS011;43499;52.366;12.912;2023-04-15T03:58:06;42.08;;;23.75;;
57667;SDS011;43499;52.366;12.912;2023-04-15T03:59:09;49.40;;;24.35;;
57667;SDS011;43499;52.366;12.912;2023-04-15T04:00:12;50.00;;;23.95;;
57667;SDS011;43499;52.366;12.912;2023-04-15T04:01:14;48.63;;;24.67;;
57667;SDS011;43499;52.366;12.912;2023-04-15T04:02:17;46.67;;;25.30;;
57667;SDS011;43499;52.366;12.912;2023-04-15T04:03:19;45.08;;;24.75;;
57667;SDS011;43499;52.366;12.912;2023-04-15T04:04:22;51.05;;;24.75;;
57667;SDS011;43499;52.366;12.912;2023-04-15T04:05:24;46.38;;;24.83;;
57667;SDS011;43499;52.366;12.912;2023-04-15T04:06:26;48.45;;;25.08;;
57667;SDS011;43499;52.366;12.912;2023-04-15T04:07:28;52.00;;;25.75;;
57667;SDS011;43499;52.366;12.912;2023-04-15T04:08:31;47.92;;;25.75;;
57667;SDS011;43499;52.366;12.912;2023-04-15T04:09:33;44.60;;;25.40;;
57667;SDS011;43499;52.366;12.912;2023-04-15T04:10:35;45.75;;;25.08;;
57667;SDS011;43499;52.366;12.912;2023-04-15T04:11:38;46.70;;;24.83;;
57667;SDS011;43499;52.366;12.912;2023-04-15T04:12:40;55.65;;;26.50;;
57667;SDS011;43499;52.366;12.912;2023-04-15T04:13:42;53.08;;;24.90;;
57667;SDS011;43499;52.366;12.912;2023-04-15T04:14:45;49.78;;;24.25;;
57667;SDS011;43499;52.366;12.912;2023-04-15T04:15:47;55.15;;;25.77;;
57667;SDS011;43499;52.366;12.912;2023-04-15T04:16:50;45.22;;;24.92;;
57667;SDS011;43499;52.366;12.912;2023-04-15T04:17:52;53.97;;;26.83;;
57667;SDS011;43499;52.366;12.912;2023-04-15T04:18:54;57.33;;;25.95;;
57667;SDS011;43499;52.366;12.912;2023-04-15T04:19:57;47.25;;;25.40;;
57667;SDS011;43499;52.366;12.912;2023-04-15T04:20:59;48.85;;;25.77;;
57667;SDS011;43499;52.366;12.912;2023-04-15T04:22:02;51.30;;;24.85;;
57667;SDS011;43499;52.366;12.912;2023-04-15T04:23:04;48.88;;;27.25;;
57667;SDS011;43499;52.366;12.912;2023-04-15T04:24:06;54.40;;;26.95;;
57667;SDS011;43499;52.366;12.912;2023-04-15T04:25:09;45.65;;;24.65;;
57667;SDS011;43499;52.366;12.912;2023-04-15T04:26:12;56.28;;;25.13;;
57667;SDS011;43499;52.366;12.912;2023-04-15T04:27:14;52.10;;;27.73;;
57667;SDS011;43499;52.366;12.912;2023-04-15T04:28:16;48.15;;;24.40;;
57667;SDS011;43499;52.366;12.912;2023-04-15T04:29:19;47.85;;;25.75;;
57667;SDS011;43499;52.366;12.912;2023-04-15T04:30:21;51.85;;;25.05;;
57667;SDS011;43499;52.366;12.912;2023-04-15T04:31:23;52.40;;;27.08;;
57667;SDS011;43499;52.366;12.912;2023-04-15T04:32:26;48.65;;;25.63;;
57667;SDS011;43499;52.366;12.912;2023-04-15T04:33:28;46.45;;;24.92;;
57667;SDS011;43499;52.366;12.912;2023-04-15T04:34:31;44.97;;;25.67;;
57667;SDS011;43499;52.366;12.912;2023-04-15T04:35:33;46.88;;;25.23;;
57667;SDS011;43499;52.366;12.912;2023-04-15T04:36:35;47.97;;;25.73;;
57667;SDS011;43499;52.366;12.912;2023-04-15T04:37:38;47.15;;;24.73;;
57667;SDS011;43499;52.366;12.912;2023-04-15T04:38:40;49.15;;;25.52;;
57667;SDS011;43499;52.366;12.912;2023-04-15T04:39:42;46.50;;;24.23;;
57667;SDS011;43499;52.366;12.912;2023-04-15T04:40:45;42.58;;;24.50;;
57667;SDS011;43499;52.366;12.912;2023-04-15T04:41:47;47.45;;;26.00;;
57667;SDS011;43499;52.366;12.912;2023-04-15T04:42:50;50.30;;;26.55;;
57667;SDS011;43499;52.366;12.912;2023-04-15T04:43:52;47.10;;;24.40;;
57667;SDS011;43499;52.366;12.912;2023-04-15T04:44:54;52.65;;;25.88;;
57667;SDS011;43499;52.366;12.912;2023-04-15T04:45:57;49.35;;;25.52;;
57667;SDS011;43499;52.366;12.912;2023-04-15T04:46:59;46.75;;;24.88;;
57667;SDS011;43499;52.366;12.912;2023-04-15T04:48:03;48.55;;;26.40;;
57667;SDS011;43499;52.366;12.912;2023-04-15T04:49:07;49.88;;;25.25;;
57667;SDS011;43499;52.366;12.912;2023-04-15T04:50:10;46.85;;;25.13;;
57667;SDS011;43499;52.366;12.912;2023-04-15T04:51:12;41.80;;;23.65;;
57667;SDS011;43499;52.366;12.912;2023-04-15T04:52:14;49.65;;;26.25;;
57667;SDS011;43499;52.366;12.912;2023-04-15T04:53:17;45.28;;;23.73;;
57667;SDS011;43499;52.366;12.912;2023-04-15T04:54:19;49.67;;;25.67;;
57667;SDS011;43499;52.366;12.912;2023-04-15T04:55:22;49.97;;;25.55;;
57667;SDS011;43499;52.366;12.912;2023-04-15T04:56:24;43.03;;;23.52;;
57667;SDS011;43499;52.366;12.912;2023-04-15T04:57:26;49.33;;;24.80;;
57667;SDS011;43499;52.366;12.912;2023-04-15T04:58:29;47.15;;;24.45;;
57667;SDS011;43499;52.366;12.912;2023-04-15T04:59:31;48.17;;;25.50;;
57667;SDS011;43499;52.366;12.912;2023-04-15T05:00:34;46.20;;;24.83;;
57667;SDS011;43499;52.366;12.912;2023-04-15T05:01:36;56.28;;;25.83;;
57667;SDS011;43499;52.366;12.912;2023-04-15T05:02:38;51.25;;;26.15;;
57667;SDS011;43499;52.366;12.912;2023-04-15T05:03:42;44.85;;;24.25;;
57667;SDS011;43499;52.366;12.912;2023-04-15T05:04:45;44.17;;;25.00;;
57667;SDS011;43499;52.366;12.912;2023-04-15T05:05:47;45.50;;;24.30;;
57667;SDS011;43499;52.366;12.912;2023-04-15T05:06:50;43.90;;;25.13;;
57667;SDS011;43499;52.366;12.912;2023-04-15T05:07:52;45.80;;;24.65;;
57667;SDS011;43499;52.366;12.912;2023-04-15T05:08:54;46.78;;;25.13;;
57667;SDS011;43499;52.366;12.912;2023-04-15T05:09:57;49.17;;;26.73;;
57667;SDS011;43499;52.366;12.912;2023-04-15T05:10:59;43.25;;;23.45;;
57667;SDS011;43499;52.366;12.912;2023-04-15T05:12:05;50.05;;;25.65;;
57667;SDS011;43499;52.366;12.912;2023-04-15T05:13:07;46.08;;;25.33;;
57667;SDS011;43499;52.366;12.912;2023-04-15T05:14:10;48.75;;;25.23;;
57667;SDS011;43499;52.366;12.912;2023-04-15T05:15:12;46.38;;;25.00;;
57667;SDS011;43499;52.366;12.912;2023-04-15T05:16:14;50.00;;;24.88;;
57667;SDS011;43499;52.366;12.912;2023-04-15T05:17:17;43.25;;;24.70;;
57667;SDS011;43499;52.366;12.912;2023-04-15T05:18:19;51.17;;;24.85;;
57667;SDS011;43499;52.366;12.912;2023-04-15T05:19:21;48.25;;;25.98;;
57667;SDS011;43499;52.366;12.912;2023-04-15T05:20:24;49.17;;;25.58;;
57667;SDS011;43499;52.366;12.912;2023-04-15T05:21:26;47.65;;;23.65;;
57667;SDS011;43499;52.366;12.912;2023-04-15T05:22:28;46.95;;;25.48;;
57667;SDS011;43499;52.366;12.912;2023-04-15T05:23:31;45.08;;;23.15;;
57667;SDS011;43499;52.366;12.912;2023-04-15T05:24:33;41.80;;;23.02;;
57667;SDS011;43499;52.366;12.912;2023-04-15T05:25:35;42.58;;;22.95;;
57667;SDS011;43499;52.366;12.912;2023-04-15T05:26:38;48.28;;;25.25;;
57667;SDS011;43499;52.366;12.912;2023-04-15T05:27:40;44.15;;;23.85;;
57667;SDS011;43499;52.366;12.912;2023-04-15T05:28:43;40.60;;;22.73;;
57667;SDS011;43499;52.366;12.912;2023-04-15T05:29:45;45.00;;;24.30;;
57667;SDS011;43499;52.366;12.912;2023-04-15T05:30:47;45.95;;;22.75;;
57667;SDS011;43499;52.366;12.912;2023-04-15T05:31:49;42.70;;;24.02;;
57667;SDS011;43499;52.366;12.912;2023-04-15T05:32:52;44.58;;;23.52;;
57667;SDS011;43499;52.366;12.912;2023-04-15T05:33:54;45.33;;;23.48;;
57667;SDS011;43499;52.366;12.912;2023-04-15T05:34:57;39.92;;;23.52;;
57667;SDS011;43499;52.366;12.912;2023-04-15T05:35:59;44.72;;;22.42;;
57667;SDS011;43499;52.366;12.912;2023-04-15T05:37:01;50.00;;;23.10;;
57667;SDS011;43499;52.366;12.912;2023-04-15T05:38:04;44.50;;;22.85;;
57667;SDS011;43499;52.366;12.912;2023-04-15T05:39:07;41.40;;;23.35;;
57667;SDS011;43499;52.366;12.912;2023-04-15T05:40:10;45.58;;;24.63;;
57667;SDS011;43499;52.366;12.912;2023-04-15T05:41:12;43.03;;;24.15;;
57667;SDS011;43499;52.366;12.912;2023-04-15T05:42:16;43.20;;;23.25;;
57667;SDS011;43499;52.366;12.912;2023-04-15T05:43:19;39.35;;;21.88;;
57667;SDS011;43499;52.366;12.912;2023-04-15T05:44:21;42.13;;;23.60;;
57667;SDS011;43499;52.366;12.912;2023-04-15T05:45:23;40.58;;;22.83;;
57667;SDS011;43499;52.366;12.912;2023-04-15T05:46:26;44.95;;;23.33;;
57667;SDS011;43499;52.366;12.912;2023-04-15T05:47:28;41.70;;;23.55;;
57667;SDS011;43499;52.366;12.912;2023-04-15T05:48:30;41.70;;;23.15;;
57667;SDS011;43499;52.366;12.912;2023-04-15T05:49:33;43.83;;;22.63;;
57667;SDS011;43499;52.366;12.912;2023-04-15T05:50:35;36.90;;;21.40;;
57667;SDS011;43499;52.366;12.912;2023-04-15T05:51:37;41.97;;;22.65;;
57667;SDS011;43499;52.366;12.912;2023-04-15T05:52:40;38.42;;;20.98;;
57667;SDS011;43499;52.366;12.912;2023-04-15T05:53:42;39.60;;;21.45;;
57667;SDS011;43499;52.366;12.912;2023-04-15T05:54:44;45.65;;;22.75;;
57667;SDS011;43499;52.366;12.912;2023-04-15T05:55:47;42.28;;;23.42;;
57667;SDS011;43499;52.366;12.912;2023-04-15T05:56:49;36.42;;;21.98;;
57667;SDS011;43499;52.366;12.912;2023-04-15T05:57:52;38.78;;;22.38;;
57667;SDS011;43499;52.366;12.912;2023-04-15T05:58:54;41.80;;;22.33;;
57667;SDS011;43499;52.366;12.912;2023-04-15T05:59:56;46.30;;;23.58;;
57667;SDS011;43499;52.366;12.912;2023-04-15T06:00:59;39.60;;;23.15;;